Time,TemperatureF,DewpointF,PressureIn,WindDirection,WindDirectionDegrees,WindSpeedMPH,WindSpeedGustMPH,Humidity,HourlyPrecipIn,Conditions,Clouds,dailyrainin,SoftwareType,DateUTC
2013-06-18 00:02:00,57.0,22.0,-100.00,South,187,1.0,1.0,25,-99.99,,,-99.99,,2013-06-18 06:02:00,
2013-06-18 00:11:00,57.0,22.0,-100.00,South,187,1.0,1.0,25,-99.99,,,-99.99,,2013-06-18 06:11:00,
2013-06-18 00:23:00,57.0,22.0,-100.00,South,187,1.0,1.0,25,-99.99,,,-99.99,,2013-06-18 06:23:00,
2013-06-18 00:32:00,57.0,22.0,-100.00,South,190,1.0,1.0,25,-99.99,,,-99.99,,2013-06-18 06:32:00,
2013-06-18 00:43:00,57.0,22.0,-100.00,South,190,1.0,1.0,25,-99.99,,,-99.99,,2013-06-18 06:43:00,
2013-06-18 01:33:00,56.0,17.0,-100.00,SSW,193,1.0,1.0,21,-99.99,,,-99.99,,2013-06-18 07:33:00,
2013-06-18 01:43:00,56.0,17.0,-100.00,SSW,193,1.0,1.0,21,-99.99,,,-99.99,,2013-06-18 07:43:00,
2013-06-18 01:52:00,56.0,17.0,-100.00,SSW,196,1.0,1.0,21,-99.99,,,-99.99,,2013-06-18 07:52:00,
2013-06-18 02:01:00,56.0,17.0,-100.00,SSW,196,1.0,1.0,21,-99.99,,,-99.99,,2013-06-18 08:01:00,
2013-06-18 02:11:00,55.0,17.0,-100.00,SSW,199,1.0,1.0,22,-99.99,,,-99.99,,2013-06-18 08:11:00,
2013-06-18 02:23:00,55.0,16.0,-100.00,SSW,198,1.0,1.0,21,-99.99,,,-99.99,,2013-06-18 08:23:00,
2013-06-18 02:32:00,55.0,16.0,-100.00,SSW,193,1.0,1.0,21,-99.99,,,-99.99,,2013-06-18 08:32:00,
2013-06-18 02:43:00,55.0,17.0,-100.00,SSW,194,1.0,1.0,22,-99.99,,,-99.99,,2013-06-18 08:43:00,
2013-06-18 02:52:00,55.0,15.0,-100.00,SSW,200,1.0,1.0,20,-99.99,,,-99.99,,2013-06-18 08:52:00,
2013-06-18 03:01:00,56.0,19.0,-100.00,SSW,207,1.0,2.0,23,-99.99,,,-99.99,,2013-06-18 09:01:00,
2013-06-18 03:11:00,56.0,19.0,-100.00,SSW,207,1.0,2.0,23,-99.99,,,-99.99,,2013-06-18 09:11:00,
2013-06-18 03:22:00,56.0,19.0,-100.00,SSW,203,2.0,2.0,23,-99.99,,,-99.99,,2013-06-18 09:22:00,
2013-06-18 03:34:00,55.0,19.0,-100.00,SSW,192,1.0,1.0,24,-99.99,,,-99.99,,2013-06-18 09:34:00,
2013-06-18 03:42:00,55.0,18.0,-100.00,South,186,1.0,1.0,23,-99.99,,,-99.99,,2013-06-18 09:42:00,
2013-06-18 03:53:00,54.0,20.0,-100.00,South,191,1.0,1.0,26,-99.99,,,-99.99,,2013-06-18 09:53:00,
2013-06-18 04:01:00,54.0,17.0,-100.00,SSW,194,1.0,2.0,23,-99.99,,,-99.99,,2013-06-18 10:01:00,
2013-06-18 04:11:00,54.0,17.0,-100.00,SSW,194,1.0,2.0,23,-99.99,,,-99.99,,2013-06-18 10:11:00,
2013-06-18 04:22:00,54.0,15.0,-100.00,SSW,197,1.0,2.0,21,-99.99,,,-99.99,,2013-06-18 10:22:00,
2013-06-18 04:33:00,53.0,13.0,-100.00,SSW,201,1.0,1.0,20,-99.99,,,-99.99,,2013-06-18 10:33:00,
2013-06-18 04:43:00,53.0,13.0,-100.00,SSW,201,1.0,1.0,20,-99.99,,,-99.99,,2013-06-18 10:43:00,
2013-06-18 04:53:00,53.0,12.0,-100.00,SSW,196,1.0,2.0,19,-99.99,,,-99.99,,2013-06-18 10:53:00,
2013-06-18 05:02:00,53.0,13.0,-100.00,SSW,193,1.0,1.0,20,-99.99,,,-99.99,,2013-06-18 11:02:00,
2013-06-18 05:11:00,53.0,13.0,-100.00,SSW,193,1.0,1.0,20,-99.99,,,-99.99,,2013-06-18 11:11:00,
2013-06-18 05:22:00,52.0,13.0,-100.00,South,187,1.0,1.0,21,-99.99,,,-99.99,,2013-06-18 11:22:00,
2013-06-18 05:32:00,52.0,13.0,-100.00,SSW,203,1.0,1.0,21,-99.99,,,-99.99,,2013-06-18 11:32:00,
2013-06-18 05:43:00,52.0,13.0,-100.00,SSW,202,1.0,1.0,21,-99.99,,,-99.99,,2013-06-18 11:43:00,
2013-06-18 05:52:00,52.0,13.0,-100.00,SSW,201,1.0,2.0,21,-99.99,,,-99.99,,2013-06-18 11:52:00,
2013-06-18 06:01:00,52.0,13.0,-100.00,SSW,201,1.0,2.0,21,-99.99,,,-99.99,,2013-06-18 12:01:00,
2013-06-18 06:11:00,52.0,13.0,-100.00,SSW,212,1.0,1.0,21,-99.99,,,-99.99,,2013-06-18 12:11:00,
2013-06-18 06:22:00,52.0,13.0,-100.00,SSW,199,1.0,1.0,21,-99.99,,,-99.99,,2013-06-18 12:22:00,
2013-06-18 06:32:00,52.0,13.0,-100.00,SSW,199,1.0,1.0,21,-99.99,,,-99.99,,2013-06-18 12:32:00,
2013-06-18 06:42:00,52.0,14.0,-100.00,SSW,212,1.0,1.0,22,-99.99,,,-99.99,,2013-06-18 12:42:00,
2013-06-18 06:52:00,52.0,15.0,-100.00,SSW,196,1.0,2.0,23,-99.99,,,-99.99,,2013-06-18 12:52:00,
2013-06-18 07:01:00,52.0,15.0,-100.00,SSW,196,1.0,2.0,23,-99.99,,,-99.99,,2013-06-18 13:01:00,
2013-06-18 07:11:00,53.0,16.0,-100.00,SSW,194,1.0,2.0,23,-99.99,,,-99.99,,2013-06-18 13:11:00,
2013-06-18 07:22:00,53.0,17.0,-100.00,SSW,198,1.0,1.0,24,-99.99,,,-99.99,,2013-06-18 13:22:00,
2013-06-18 07:33:00,53.0,17.0,-100.00,SSW,198,1.0,1.0,24,-99.99,,,-99.99,,2013-06-18 13:33:00,
2013-06-18 07:43:00,53.0,19.0,-100.00,SSW,196,1.0,2.0,26,-99.99,,,-99.99,,2013-06-18 13:43:00,
2013-06-18 07:52:00,54.0,22.0,-100.00,SSW,195,1.0,1.0,28,-99.99,,,-99.99,,2013-06-18 13:52:00,
2013-06-18 08:02:00,54.0,22.0,-100.00,SSW,195,1.0,1.0,28,-99.99,,,-99.99,,2013-06-18 14:02:00,
2013-06-18 08:11:00,54.0,20.0,-100.00,SSW,192,1.0,1.0,26,-99.99,,,-99.99,,2013-06-18 14:11:00,
2013-06-18 08:22:00,55.0,22.0,-100.00,South,179,1.0,1.0,27,-99.99,,,-99.99,,2013-06-18 14:22:00,
2013-06-18 08:33:00,55.0,22.0,-100.00,South,179,1.0,1.0,27,-99.99,,,-99.99,,2013-06-18 14:33:00,
2013-06-18 08:43:00,57.0,22.0,-100.00,SSE,157,1.0,1.0,26,-99.99,,,-99.99,,2013-06-18 14:43:00,
2013-06-18 08:52:00,58.0,24.0,-100.00,SE,142,1.0,1.0,27,-99.99,,,-99.99,,2013-06-18 14:52:00,
2013-06-18 09:02:00,61.0,21.0,-100.00,SE,137,1.0,2.0,21,-99.99,,,-99.99,,2013-06-18 15:02:00,
2013-06-18 09:11:00,61.0,21.0,-100.00,SE,137,1.0,2.0,21,-99.99,,,-99.99,,2013-06-18 15:11:00,
2013-06-18 09:22:00,61.0,22.0,-100.00,ESE,116,1.0,2.0,22,-99.99,,,-99.99,,2013-06-18 15:22:00,
2013-06-18 09:33:00,61.0,23.0,-100.00,ESE,110,1.0,2.0,23,-99.99,,,-99.99,,2013-06-18 15:33:00,
2013-06-18 09:43:00,61.0,23.0,-100.00,ESE,110,1.0,2.0,23,-99.99,,,-99.99,,2013-06-18 15:43:00,
2013-06-18 09:53:00,60.0,20.0,-100.00,South,174,1.0,3.0,21,-99.99,,,-99.99,,2013-06-18 15:53:00,
2013-06-18 10:01:00,62.0,25.0,-100.00,ESE,105,1.0,2.0,24,-99.99,,,-99.99,,2013-06-18 16:01:00,
2013-06-18 10:11:00,62.0,25.0,-100.00,ESE,105,1.0,2.0,24,-99.99,,,-99.99,,2013-06-18 16:11:00,
2013-06-18 10:22:00,63.0,25.0,-100.00,ESE,121,1.0,2.0,23,-99.99,,,-99.99,,2013-06-18 16:22:00,
2013-06-18 10:33:00,63.0,26.0,-100.00,ESE,117,1.0,2.0,24,-99.99,,,-99.99,,2013-06-18 16:33:00,
2013-06-18 10:43:00,63.0,26.0,-100.00,ESE,117,1.0,2.0,24,-99.99,,,-99.99,,2013-06-18 16:43:00,
2013-06-18 10:53:00,64.0,25.0,-100.00,East,89,2.0,4.0,23,-99.99,,,-99.99,,2013-06-18 16:53:00,
2013-06-18 11:01:00,64.0,26.0,-100.00,SE,132,1.0,3.0,24,-99.99,,,-99.99,,2013-06-18 17:01:00,
2013-06-18 11:11:00,64.0,26.0,-100.00,SE,132,1.0,3.0,24,-99.99,,,-99.99,,2013-06-18 17:11:00,
2013-06-18 11:22:00,64.0,27.0,-100.00,ESE,106,1.0,3.0,25,-99.99,,,-99.99,,2013-06-18 17:22:00,
2013-06-18 11:33:00,64.0,28.0,-100.00,ESE,112,1.0,2.0,26,-99.99,,,-99.99,,2013-06-18 17:33:00,
2013-06-18 11:43:00,64.0,28.0,-100.00,ESE,112,1.0,2.0,26,-99.99,,,-99.99,,2013-06-18 17:43:00,
2013-06-18 11:53:00,66.0,27.0,-100.00,SW,230,1.0,3.0,23,-99.99,,,-99.99,,2013-06-18 17:53:00,
2013-06-18 12:01:00,66.0,27.0,-100.00,South,171,2.0,5.0,23,-99.99,,,-99.99,,2013-06-18 18:01:00,
2013-06-18 12:11:00,66.0,27.0,-100.00,South,171,2.0,5.0,23,-99.99,,,-99.99,,2013-06-18 18:11:00,
2013-06-18 12:22:00,67.0,28.0,-100.00,NW,324,1.0,4.0,23,-99.99,,,-99.99,,2013-06-18 18:22:00,
2013-06-18 12:33:00,69.0,31.0,-100.00,North,8,1.0,3.0,24,-99.99,,,-99.99,,2013-06-18 18:33:00,
2013-06-18 12:42:00,69.0,31.0,-100.00,North,8,1.0,3.0,24,-99.99,,,-99.99,,2013-06-18 18:42:00,
2013-06-18 12:53:00,69.0,32.0,-100.00,SW,236,2.0,4.0,25,-99.99,,,-99.99,,2013-06-18 18:53:00,
2013-06-18 13:01:00,69.0,31.0,-100.00,NE,36,1.0,3.0,24,-99.99,,,-99.99,,2013-06-18 19:01:00,
2013-06-18 13:11:00,69.0,31.0,-100.00,NE,36,1.0,3.0,24,-99.99,,,-99.99,,2013-06-18 19:11:00,
2013-06-18 13:22:00,70.0,30.0,-100.00,WNW,283,1.0,4.0,23,-99.99,,,-99.99,,2013-06-18 19:22:00,
2013-06-18 13:33:00,70.0,29.0,-100.00,East,85,1.0,4.0,22,-99.99,,,-99.99,,2013-06-18 19:33:00,
2013-06-18 13:43:00,70.0,29.0,-100.00,East,85,1.0,4.0,22,-99.99,,,-99.99,,2013-06-18 19:43:00,
2013-06-18 13:52:00,70.0,29.0,-100.00,ENE,65,2.0,4.0,22,-99.99,,,-99.99,,2013-06-18 19:52:00,
2013-06-18 14:01:00,70.0,29.0,-100.00,ENE,65,2.0,4.0,22,-99.99,,,-99.99,,2013-06-18 20:01:00,
2013-06-18 14:11:00,70.0,28.0,-100.00,NE,48,2.0,6.0,21,-99.99,,,-99.99,,2013-06-18 20:11:00,
2013-06-18 14:22:00,70.0,29.0,-100.00,ENE,67,3.0,6.0,22,-99.99,,,-99.99,,2013-06-18 20:22:00,
2013-06-18 14:33:00,70.0,29.0,-100.00,NNE,26,2.0,4.0,22,-99.99,,,-99.99,,2013-06-18 20:33:00,
2013-06-18 14:43:00,70.0,29.0,-100.00,NNE,26,2.0,4.0,22,-99.99,,,-99.99,,2013-06-18 20:43:00,
2013-06-18 14:52:00,70.0,30.0,-100.00,ENE,62,2.0,5.0,23,-99.99,,,-99.99,,2013-06-18 20:52:00,
2013-06-18 15:01:00,70.0,30.0,-100.00,ENE,62,2.0,5.0,23,-99.99,,,-99.99,,2013-06-18 21:01:00,
2013-06-18 15:11:00,70.0,29.0,-100.00,East,79,3.0,6.0,22,-99.99,,,-99.99,,2013-06-18 21:11:00,
2013-06-18 15:22:00,70.0,29.0,-100.00,ENE,69,2.0,5.0,22,-99.99,,,-99.99,,2013-06-18 21:22:00,
2013-06-18 15:33:00,69.0,27.0,-100.00,NE,48,2.0,6.0,21,-99.99,,,-99.99,,2013-06-18 21:33:00,
2013-06-18 15:43:00,69.0,27.0,-100.00,NE,48,2.0,6.0,21,-99.99,,,-99.99,,2013-06-18 21:43:00,
2013-06-18 15:52:00,70.0,29.0,-100.00,ENE,61,3.0,5.0,22,-99.99,,,-99.99,,2013-06-18 21:52:00,
2013-06-18 16:01:00,69.0,27.0,-100.00,ENE,58,2.0,4.0,21,-99.99,,,-99.99,,2013-06-18 22:01:00,
2013-06-18 16:11:00,69.0,27.0,-100.00,ENE,58,2.0,4.0,21,-99.99,,,-99.99,,2013-06-18 22:11:00,
2013-06-18 16:22:00,69.0,25.0,-100.00,East,85,4.0,7.0,19,-99.99,,,-99.99,,2013-06-18 22:22:00,
2013-06-18 16:30:00,70.0,26.0,-100.00,ENE,57,2.0,4.0,19,-99.99,,,-99.99,,2013-06-18 22:30:00,
2013-06-18 16:34:00,70.0,25.0,-100.00,ENE,76,3.0,6.0,18,-99.99,,,-99.99,,2013-06-18 22:34:00,
2013-06-18 16:42:00,70.0,25.0,-100.00,ENE,76,3.0,6.0,18,-99.99,,,-99.99,,2013-06-18 22:42:00,
2013-06-18 16:53:00,69.0,24.0,-100.00,NNE,23,2.0,4.0,18,-99.99,,,-99.99,,2013-06-18 22:53:00,
2013-06-18 17:01:00,69.0,24.0,-100.00,NNE,23,2.0,4.0,18,-99.99,,,-99.99,,2013-06-18 23:01:00,
2013-06-18 17:11:00,70.0,26.0,-100.00,ENE,57,2.0,4.0,19,-99.99,,,-99.99,,2013-06-18 23:11:00,
2013-06-18 17:23:00,70.0,26.0,-100.00,ENE,57,2.0,4.0,19,-99.99,,,-99.99,,2013-06-18 23:23:00,
2013-06-18 17:45:00,70.0,26.0,-100.00,ENE,65,2.0,4.0,19,-99.99,,,-99.99,,2013-06-18 23:45:00,
2013-06-18 17:53:00,70.0,25.0,-100.00,East,95,3.0,5.0,18,-99.99,,,-99.99,,2013-06-18 23:53:00,
2013-06-18 18:01:00,70.0,25.0,-100.00,East,95,3.0,5.0,18,-99.99,,,-99.99,,2013-06-19 00:01:00,
2013-06-18 18:11:00,69.0,26.0,-100.00,ENE,60,1.0,3.0,20,-99.99,,,-99.99,,2013-06-19 00:11:00,
2013-06-18 18:22:00,69.0,24.0,-100.00,ENE,73,2.0,4.0,18,-99.99,,,-99.99,,2013-06-19 00:22:00,
2013-06-18 18:33:00,69.0,25.0,-100.00,ENE,70,2.0,4.0,19,-99.99,,,-99.99,,2013-06-19 00:33:00,
2013-06-18 18:43:00,69.0,25.0,-100.00,NNW,343,1.0,2.0,19,-99.99,,,-99.99,,2013-06-19 00:43:00,
2013-06-18 18:53:00,67.0,26.0,-100.00,North,356,1.0,4.0,21,-99.99,,,-99.99,,2013-06-19 00:53:00,
2013-06-18 19:01:00,67.0,26.0,-100.00,North,356,1.0,4.0,21,-99.99,,,-99.99,,2013-06-19 01:01:00,
2013-06-18 19:11:00,66.0,25.0,-100.00,NE,46,1.0,3.0,21,-99.99,,,-99.99,,2013-06-19 01:11:00,
2013-06-18 19:22:00,66.0,23.0,-100.00,NE,55,1.0,3.0,19,-99.99,,,-99.99,,2013-06-19 01:22:00,
2013-06-18 19:32:00,66.0,23.0,-100.00,NE,55,1.0,3.0,19,-99.99,,,-99.99,,2013-06-19 01:32:00,
2013-06-18 19:42:00,65.0,22.0,-100.00,NE,53,1.0,3.0,19,-99.99,,,-99.99,,2013-06-19 01:42:00,
2013-06-18 19:53:00,65.0,23.0,-100.00,ENE,76,1.0,3.0,20,-99.99,,,-99.99,,2013-06-19 01:53:00,
2013-06-18 20:01:00,64.0,22.0,-100.00,NE,45,1.0,3.0,20,-99.99,,,-99.99,,2013-06-19 02:01:00,
2013-06-18 20:11:00,64.0,22.0,-100.00,NE,45,1.0,3.0,20,-99.99,,,-99.99,,2013-06-19 02:11:00,
2013-06-18 20:21:00,63.0,20.0,-100.00,North,7,1.0,4.0,19,-99.99,,,-99.99,,2013-06-19 02:21:00,
2013-06-18 20:32:00,62.0,22.0,-100.00,NNE,15,1.0,2.0,21,-99.99,,,-99.99,,2013-06-19 02:32:00,
2013-06-18 20:42:00,62.0,22.0,-100.00,NNE,15,1.0,2.0,21,-99.99,,,-99.99,,2013-06-19 02:42:00,
2013-06-18 20:51:00,62.0,20.0,-100.00,NE,53,1.0,3.0,20,-99.99,,,-99.99,,2013-06-19 02:51:00,
2013-06-18 21:01:00,60.0,21.0,-100.00,NNE,17,0.0,2.0,22,-99.99,,,-99.99,,2013-06-19 03:01:00,
2013-06-18 21:11:00,60.0,21.0,-100.00,NNE,17,0.0,2.0,22,-99.99,,,-99.99,,2013-06-19 03:11:00,
2013-06-18 21:21:00,59.0,20.0,-100.00,NE,39,0.0,1.0,22,-99.99,,,-99.99,,2013-06-19 03:21:00,
2013-06-18 21:32:00,59.0,21.0,-100.00,NNW,340,1.0,2.0,23,-99.99,,,-99.99,,2013-06-19 03:32:00,
2013-06-18 21:42:00,59.0,21.0,-100.00,NNW,340,1.0,2.0,23,-99.99,,,-99.99,,2013-06-19 03:42:00,
2013-06-18 21:52:00,58.0,19.0,-100.00,NE,45,1.0,2.0,22,-99.99,,,-99.99,,2013-06-19 03:52:00,
2013-06-18 22:01:00,58.0,17.0,-100.00,NE,38,1.0,2.0,20,-99.99,,,-99.99,,2013-06-19 04:01:00,
2013-06-18 22:11:00,58.0,17.0,-100.00,NE,38,1.0,2.0,20,-99.99,,,-99.99,,2013-06-19 04:11:00,
2013-06-18 22:22:00,57.0,17.0,-100.00,West,275,0.0,2.0,21,-99.99,,,-99.99,,2013-06-19 04:22:00,
2013-06-18 22:32:00,57.0,17.0,-100.00,North,349,0.0,1.0,21,-99.99,,,-99.99,,2013-06-19 04:32:00,
2013-06-18 22:42:00,57.0,17.0,-100.00,North,349,0.0,1.0,21,-99.99,,,-99.99,,2013-06-19 04:42:00,
2013-06-18 22:52:00,57.0,19.0,-100.00,ESE,115,1.0,2.0,22,-99.99,,,-99.99,,2013-06-19 04:52:00,
2013-06-18 23:01:00,56.0,17.0,-100.00,SSW,194,0.0,0.0,21,-99.99,,,-99.99,,2013-06-19 05:01:00,
2013-06-18 23:11:00,56.0,17.0,-100.00,SSW,194,0.0,0.0,21,-99.99,,,-99.99,,2013-06-19 05:11:00,
2013-06-18 23:22:00,56.0,17.0,-100.00,SSW,207,0.0,1.0,21,-99.99,,,-99.99,,2013-06-19 05:22:00,
2013-06-18 23:32:00,56.0,17.0,-100.00,NW,316,1.0,1.0,21,-99.99,,,-99.99,,2013-06-19 05:32:00,
2013-06-18 23:42:00,56.0,17.0,-100.00,NW,316,1.0,1.0,21,-99.99,,,-99.99,,2013-06-19 05:42:00,
2013-06-18 23:52:00,56.0,17.0,-100.00,North,353,1.0,2.0,21,-99.99,,,-99.99,,2013-06-19 05:52:00,